Disclaimer

Please do not use the information listed here in-flight or in-navigation, as they are not provided to us by the airports but are provided by volunteers, so they might be outdated.

Search


Regions


Airport information page

No radio frequency information is available.

Airport informations:
Latitude: 46° 47' 06.60" N
Longitude: 023° 41' 10.20" E
Elevation: 1036 feet - 316 meters
Operating hours: Remarks
Operating agency: Civil government, landing fees and diplomatic clearance may be required
Timezone: UTC+2(+3DT)
Fuel: N/A

Runway information:
07/25 - 6070 x 98 feet< - >1850 x 30 meters

Recent METARs:
LRCL 210700Z 06003KT 9999 -RA FEW026 OVC040 05/03 Q1015 R07/29//95
LRCL 210730Z 07004KT 9999 -RA OVC042 05/03 Q1015 R07/29//95
LRCL 210800Z 08005KT 9999 -RA FEW033 OVC042 05/03 Q1015 R07/29//95

Airport on the map: